Aérodrome :
LOGIN :

S'inscrire | Disclaimer

   EN    FR    IT 

 










Légende :    VFR   VFR Marginal   IFR   IFR Intensif   IFR Très Intensif
Visi : 
Plafond : 
>= 8 km
>= 3000ft
5 à 8 km
1000 à 3000 ft
1500m à 5 km
500 à 1000 ft
800 à 1500m
200 à 500 ft
< 800m
< 200 ft
Symboles :   Orages  Brouillard  Fortes neiges  Fortes précipitations  Vent > 20 kt
SIGMETs :   Divers  Orages  Givrage  Turbulence  Onde Orograph.  Cendres Volcan.







- Altitude de l'aérodrome : 138 ft
- Code IATA : BIO


LEBB - Bilbao

DERNIER METAR :
  • 130400Z VRB02KT 9999 BKN060 12/12 Q1025 NOSIG

METARs EXPIRÉS :
  • 130330Z AUTO 00000KT 9999 BKN058 12/12 Q1025
  • 130300Z AUTO 00000KT 9999 OVC058 12/12 Q1025
  • 130230Z AUTO VRB02KT 9999 BKN058 12/12 Q1025
  • 130200Z AUTO 11002KT 9999 BKN059 12/12 Q1025
  • 130130Z AUTO 00000KT 9999 FEW041 BKN059 12/12 Q1025

TAF TAF LEBB
Valide du 13 à 00h jusqu'au 14 à 00h UTC


122300Z 1300/1324 VRB05KT 8000 SCT015 BKN030 TX17/1312Z TN10/1306Z
TEMPO 1300/1308 3000 BR BKN010
PROB30
TEMPO 1303/1308 1500 BCFG BKN005
PROB40
TEMPO 1310/1318 08010KT
Pas de NOTAMs connus pour ce terrain.
1 SIGMET publié pour la FIR Madrid (LECM) :
 
Turbulence forte
LECM SIGMET 1 VALID 130300/130600 LEVA
LECM MADRID UIR SEV TURB FCST WI N41 W00652 - N4417 W00408 - N4351 W00241 - N3709 W00721 - N4058 W00653 - N41 W00652 FL270/330 STNR WKN=



MET'MAP, la Météo Aéronautique d'un coup d'oeil ! - Copyright ORBIFLY Décembre 2007 - Disclaimer

ORBIFLY MET'MAP TEAM :

Programmation & Développement : Alexandra Zaïnal
Conception & Développement : Baudouin d'Aumeries
Co-Programmation & Développement : Marc-Olivier Méhu
Soutien technique & logistique : Manuel Goepfert

Contact : metmap@orbifly.com




SOURCES & CREDITS :

   NOAA